createdAt,value
2023-05-15T00:01:22.306Z,95286.28
2023-05-15T00:04:07.273Z,95273.88
2023-05-15T00:06:53.577Z,95279.50
2023-05-15T00:09:39.051Z,95271.88
2023-05-15T00:12:24.564Z,95269.53
2023-05-15T00:15:10.268Z,95276.94
2023-05-15T00:17:55.780Z,95273.16
2023-05-15T00:20:41.579Z,95274.53
2023-05-15T00:23:26.865Z,95269.44
2023-05-15T00:26:15.680Z,95258.25
2023-05-15T00:29:01.093Z,95254.78
2023-05-15T00:31:46.440Z,95240.59
2023-05-15T00:34:31.785Z,95234.22
2023-05-15T00:37:17.033Z,95222.72
2023-05-15T00:40:02.444Z,95221.16
2023-05-15T00:42:48.856Z,95206.03
2023-05-15T00:45:34.639Z,95198.13
2023-05-15T00:48:22.688Z,95187.25
2023-05-15T00:51:08.510Z,95181.19
2023-05-15T00:53:54.938Z,95177.50
2023-05-15T00:56:41.783Z,95180.69
2023-05-15T00:59:28.805Z,95172.97
2023-05-15T01:02:18.421Z,95182.00
2023-05-15T01:05:04.296Z,95190.22
2023-05-15T01:08:18.323Z,95181.53
2023-05-15T01:11:05.694Z,95198.28
2023-05-15T01:13:50.674Z,95207.47
2023-05-15T01:16:36.545Z,95210.03
2023-05-15T01:19:22.125Z,95201.97
2023-05-15T01:22:30.684Z,95201.16
2023-05-15T01:25:47.280Z,95207.28
2023-05-15T01:28:38.170Z,95203.13
2023-05-15T01:31:26.810Z,95192.47
2023-05-15T01:34:12.828Z,95193.13
2023-05-15T01:37:03.282Z,95204.56
2023-05-15T01:39:53.268Z,95212.28
2023-05-15T01:42:44.246Z,95196.91
2023-05-15T01:45:32.389Z,95187.31
2023-05-15T01:48:19.684Z,95179.09
2023-05-15T01:51:07.824Z,95184.09
2023-05-15T01:53:53.999Z,95168.13
2023-05-15T01:56:41.314Z,95162.56
2023-05-15T01:59:28.570Z,95161.75
2023-05-15T02:02:15.324Z,95160.72
2023-05-15T02:05:01.572Z,95149.53
2023-05-15T02:07:48.428Z,95152.69
2023-05-15T02:10:34.077Z,95149.44
2023-05-15T02:13:20.158Z,95142.59
2023-05-15T02:16:05.751Z,95128.56
2023-05-15T02:18:52.721Z,95136.56
2023-05-15T02:21:38.044Z,95131.56
2023-05-15T02:24:23.465Z,95127.75
2023-05-15T02:27:17.249Z,95126.09
2023-05-15T02:30:11.253Z,95118.59
2023-05-15T02:33:12.654Z,95107.50
2023-05-15T02:36:09.450Z,95122.72
2023-05-15T02:38:56.661Z,95112.16
2023-05-15T02:41:42.390Z,95105.63
2023-05-15T02:44:28.871Z,95093.78
2023-05-15T02:47:14.965Z,95089.50
2023-05-15T02:50:00.701Z,95088.41
2023-05-15T02:52:45.805Z,95085.34
2023-05-15T02:55:31.607Z,95078.47
2023-05-15T02:58:16.684Z,95080.44
2023-05-15T03:01:02.058Z,95077.19
2023-05-15T03:03:47.648Z,95080.97
2023-05-15T03:06:33.104Z,95075.50
2023-05-15T03:09:18.395Z,95076.13
2023-05-15T03:12:04.088Z,95072.69
2023-05-15T03:14:49.065Z,95072.69
2023-05-15T03:17:34.507Z,95077.94
2023-05-15T03:20:19.775Z,95074.22
2023-05-15T03:23:05.085Z,95077.13
2023-05-15T03:25:50.550Z,95075.66
2023-05-15T03:28:35.750Z,95075.97
2023-05-15T03:31:21.161Z,95073.56
2023-05-15T03:34:06.524Z,95071.16
2023-05-15T03:36:51.810Z,95065.94
2023-05-15T03:39:37.128Z,95063.59
2023-05-15T03:42:23.819Z,95059.00
2023-05-15T03:45:09.639Z,95056.34
2023-05-15T03:47:54.742Z,95039.91
2023-05-15T03:50:40.370Z,95041.34
2023-05-15T03:53:25.612Z,95031.78
2023-05-15T03:56:10.864Z,95023.47
2023-05-15T03:58:56.139Z,95019.63
2023-05-15T04:01:55.318Z,95014.78
2023-05-15T04:04:46.398Z,95014.63
2023-05-15T04:07:36.102Z,95021.00
2023-05-15T04:10:21.145Z,95024.13
2023-05-15T04:13:06.276Z,95008.50
2023-05-15T04:15:51.721Z,95005.00
2023-05-15T04:18:37.087Z,95011.81
2023-05-15T04:21:22.317Z,95000.47
2023-05-15T04:24:08.041Z,95000.78
2023-05-15T04:26:53.365Z,94991.16
2023-05-15T04:29:38.694Z,94993.72
2023-05-15T04:32:23.970Z,94990.97
2023-05-15T04:35:10.676Z,94993.41
2023-05-15T04:37:56.134Z,95004.19
2023-05-15T04:40:41.301Z,95008.34
2023-05-15T04:43:26.837Z,94999.00
2023-05-15T04:46:12.196Z,94995.81
2023-05-15T04:48:57.506Z,94989.19
2023-05-15T04:51:42.874Z,94989.75
2023-05-15T04:54:27.896Z,95010.28
2023-05-15T04:57:13.250Z,95018.91
2023-05-15T04:59:58.370Z,95024.84
2023-05-15T05:02:44.181Z,95027.34
2023-05-15T05:05:29.369Z,95036.22
2023-05-15T05:08:14.609Z,95043.44
2023-05-15T05:10:59.614Z,95043.44
2023-05-15T05:13:44.993Z,95034.69
2023-05-15T05:16:30.145Z,95034.44
2023-05-15T05:19:15.386Z,95031.88
2023-05-15T05:22:04.706Z,95024.28
2023-05-15T05:24:50.161Z,95018.69
2023-05-15T05:27:35.521Z,95007.81
2023-05-15T05:30:22.336Z,95000.94
2023-05-15T05:33:07.906Z,95002.31
2023-05-15T05:35:53.647Z,94997.78
2023-05-15T05:38:38.946Z,95000.00
2023-05-15T05:41:24.179Z,94999.81
2023-05-15T05:44:09.563Z,95011.88
2023-05-15T05:46:54.916Z,95007.13
2023-05-15T05:49:40.468Z,95007.13
2023-05-15T05:52:25.644Z,95002.88
2023-05-15T05:55:10.985Z,95007.69
2023-05-15T05:57:56.364Z,95003.00
2023-05-15T06:00:41.727Z,94997.19
2023-05-15T06:03:27.502Z,94993.97
2023-05-15T06:06:13.041Z,94974.91
2023-05-15T06:08:58.445Z,94976.56
2023-05-15T06:11:43.775Z,94967.84
2023-05-15T06:14:29.043Z,94955.91
2023-05-15T06:17:14.489Z,94966.63
2023-05-15T06:19:59.663Z,94974.78
2023-05-15T06:22:44.991Z,94968.78
2023-05-15T06:25:30.776Z,94968.91
2023-05-15T06:28:16.076Z,94973.19
2023-05-15T06:31:01.620Z,94978.97
2023-05-15T06:33:47.170Z,94975.22
2023-05-15T06:36:32.231Z,94969.41
2023-05-15T06:39:17.570Z,94964.69
2023-05-15T06:42:03.065Z,94967.41
2023-05-15T06:44:49.663Z,94955.03
2023-05-15T06:47:34.632Z,94958.50
2023-05-15T06:50:20.099Z,94964.19
2023-05-15T06:53:05.379Z,94963.69
2023-05-15T06:55:50.764Z,94955.31
2023-05-15T06:58:36.305Z,94956.34
2023-05-15T07:01:21.588Z,94950.41
2023-05-15T07:04:07.193Z,94961.59
2023-05-15T07:06:52.781Z,94971.72
2023-05-15T07:09:38.192Z,94967.53
2023-05-15T07:12:23.588Z,94960.63
2023-05-15T07:15:09.271Z,94962.22
2023-05-15T07:17:55.206Z,94959.56
2023-05-15T07:20:40.610Z,94960.06
2023-05-15T07:23:26.047Z,94951.22
2023-05-15T07:26:16.955Z,94958.44
2023-05-15T07:29:05.497Z,94956.78
2023-05-15T07:31:50.955Z,94943.16
2023-05-15T07:34:37.452Z,94955.59
2023-05-15T07:37:23.833Z,94952.50
2023-05-15T07:40:09.341Z,94960.47
2023-05-15T07:42:54.401Z,94951.47
2023-05-15T07:45:39.774Z,94953.56
2023-05-15T07:48:25.058Z,94943.22
2023-05-15T07:51:10.530Z,94941.13
2023-05-15T07:53:55.836Z,94932.09
2023-05-15T07:56:41.518Z,94945.56
2023-05-15T07:59:27.234Z,94953.56
2023-05-15T08:02:12.664Z,94946.34
2023-05-15T08:04:57.925Z,94939.59
2023-05-15T08:07:43.134Z,94947.94
2023-05-15T08:10:28.500Z,94955.72
2023-05-15T08:13:13.647Z,94951.78
2023-05-15T08:15:59.061Z,94958.63
2023-05-15T08:18:44.372Z,94958.38
2023-05-15T08:21:29.738Z,94957.59
2023-05-15T08:24:15.666Z,94945.13
2023-05-15T08:27:01.085Z,94928.69
2023-05-15T08:29:46.507Z,94937.41
2023-05-15T08:32:31.806Z,94949.97
2023-05-15T08:35:17.238Z,94943.09
2023-05-15T08:38:03.197Z,94944.16
2023-05-15T08:40:52.320Z,94960.25
2023-05-15T08:43:39.285Z,94958.72
2023-05-15T08:46:25.027Z,94954.47
2023-05-15T08:49:42.019Z,94971.31
2023-05-15T08:52:28.736Z,94970.56
2023-05-15T08:55:17.414Z,94966.34
2023-05-15T08:58:02.725Z,94964.19
2023-05-15T09:00:49.557Z,94968.44
2023-05-15T09:03:35.055Z,94969.50
2023-05-15T09:06:21.040Z,94974.53
2023-05-15T09:09:06.891Z,94973.72
2023-05-15T09:11:52.730Z,94975.31
2023-05-15T09:14:38.148Z,94984.47
2023-05-15T09:17:23.488Z,94986.97
2023-05-15T09:20:29.733Z,94989.09
2023-05-15T09:23:33.421Z,94994.22
2023-05-15T09:26:18.896Z,94991.53
2023-05-15T09:29:04.554Z,94998.75
2023-05-15T09:31:49.887Z,95001.09
2023-05-15T09:34:37.139Z,94995.28
2023-05-15T09:37:31.125Z,94999.56
2023-05-15T09:40:19.066Z,94994.28
2023-05-15T09:43:04.275Z,94993.78
2023-05-15T09:45:49.416Z,95002.78
2023-05-15T09:48:35.392Z,95001.81
2023-05-15T09:51:21.285Z,94993.25
2023-05-15T09:54:06.420Z,94996.44
2023-05-15T09:56:51.742Z,95004.47
2023-05-15T09:59:43.921Z,94998.94
2023-05-15T10:02:34.664Z,95001.38
2023-05-15T10:05:28.660Z,95004.25
2023-05-15T10:08:28.379Z,95006.06
2023-05-15T10:11:13.652Z,94986.91
2023-05-15T10:13:59.684Z,94996.75
2023-05-15T10:16:45.656Z,95008.72
2023-05-15T10:19:31.122Z,95004.00
2023-05-15T10:22:22.624Z,95018.22
2023-05-15T10:25:35.403Z,95013.16
2023-05-15T10:28:21.075Z,95018.38
2023-05-15T10:31:07.350Z,95010.78
2023-05-15T10:33:55.464Z,95016.31
2023-05-15T10:36:43.072Z,95008.06
2023-05-15T10:39:29.311Z,95029.44
2023-05-15T10:42:15.329Z,95034.53
2023-05-15T10:45:02.696Z,95040.63
2023-05-15T10:47:48.329Z,95045.19
2023-05-15T10:50:33.754Z,95047.28
2023-05-15T10:53:20.298Z,95030.53
2023-05-15T10:56:06.098Z,95040.69
2023-05-15T10:58:52.263Z,95048.56
2023-05-15T11:01:39.344Z,95047.13
2023-05-15T11:04:26.790Z,95051.75
2023-05-15T11:07:14.114Z,95046.16
2023-05-15T11:09:59.052Z,95039.72
2023-05-15T11:12:57.753Z,95038.94
2023-05-15T11:15:47.462Z,95033.72
2023-05-15T11:18:37.823Z,95025.22
2023-05-15T11:21:23.266Z,95029.00
2023-05-15T11:24:11.746Z,95028.50
2023-05-15T11:27:04.923Z,95017.84
2023-05-15T11:30:05.446Z,95027.97
2023-05-15T11:32:56.045Z,95024.31
2023-05-15T11:35:45.846Z,95023.81
2023-05-15T11:38:38.698Z,95026.56
2023-05-15T11:41:31.953Z,95019.38
2023-05-15T11:44:24.383Z,95014.78
2023-05-15T11:47:11.013Z,95025.41
2023-05-15T11:49:56.143Z,95031.81
2023-05-15T11:52:41.686Z,95040.31
2023-05-15T11:55:27.295Z,95039.25
2023-05-15T11:58:17.473Z,95041.13
2023-05-15T12:01:02.723Z,95053.22
2023-05-15T12:03:51.728Z,95034.59
2023-05-15T12:06:37.153Z,95039.94
2023-05-15T12:09:27.454Z,95026.53
2023-05-15T12:12:14.482Z,95024.13
2023-05-15T12:15:00.403Z,95017.38
2023-05-15T12:17:46.355Z,95017.84
2023-05-15T12:20:34.931Z,95024.75
2023-05-15T12:23:23.291Z,95029.34
2023-05-15T12:26:08.381Z,95021.31
2023-05-15T12:28:54.546Z,95032.22
2023-05-15T12:31:40.296Z,95025.00
2023-05-15T12:34:26.158Z,95028.59
2023-05-15T12:37:14.640Z,95028.13
2023-05-15T12:40:12.844Z,95036.72
2023-05-15T12:42:58.300Z,95042.13
2023-05-15T12:45:43.856Z,95033.88
2023-05-15T12:48:32.250Z,95032.06
2023-05-15T12:51:18.034Z,95031.06
2023-05-15T12:54:03.480Z,95026.81
2023-05-15T12:56:48.851Z,95022.00
2023-05-15T12:59:34.316Z,95019.84
2023-05-15T13:02:21.239Z,95024.09
2023-05-15T13:05:09.090Z,95018.28
2023-05-15T13:07:54.806Z,95026.66
2023-05-15T13:10:40.318Z,95017.66
2023-05-15T13:13:43.915Z,95013.16
2023-05-15T13:16:29.804Z,95020.13
2023-05-15T13:19:16.135Z,94998.25
2023-05-15T13:22:01.379Z,95002.56
2023-05-15T13:24:47.034Z,95007.84
2023-05-15T13:27:32.284Z,95017.47
2023-05-15T13:30:18.302Z,95010.31
2023-05-15T13:33:03.967Z,95010.88
2023-05-15T13:35:49.483Z,95018.09
2023-05-15T13:38:34.933Z,95007.19
2023-05-15T13:41:21.149Z,95012.50
2023-05-15T13:44:06.445Z,95012.25
2023-05-15T13:46:52.076Z,95000.56
2023-05-15T13:49:37.316Z,95001.16
2023-05-15T13:52:22.713Z,95008.66
2023-05-15T13:55:09.883Z,95013.16
2023-05-15T13:57:55.189Z,95022.75
2023-05-15T14:00:43.239Z,95020.06
2023-05-15T14:03:28.258Z,95023.00
2023-05-15T14:06:13.514Z,95032.63
2023-05-15T14:08:58.630Z,95020.34
2023-05-15T14:11:43.915Z,95020.63
2023-05-15T14:14:29.287Z,95021.44
2023-05-15T14:17:15.137Z,95009.44
2023-05-15T14:20:00.444Z,95012.16
2023-05-15T14:22:45.705Z,95009.78
2023-05-15T14:25:31.194Z,95017.00
2023-05-15T14:28:16.445Z,95000.44
2023-05-15T14:31:01.755Z,95003.66
2023-05-15T14:33:47.064Z,95001.81
2023-05-15T14:36:32.800Z,95006.59
2023-05-15T14:39:18.555Z,94997.78
2023-05-15T14:42:04.277Z,95001.56
2023-05-15T14:44:49.560Z,94993.00
2023-05-15T14:47:34.820Z,95004.47
2023-05-15T14:50:20.326Z,95003.66
2023-05-15T14:53:05.345Z,95002.31
2023-05-15T14:55:50.697Z,95010.34
2023-05-15T14:58:36.160Z,95004.50
2023-05-15T15:01:21.598Z,95007.16
2023-05-15T15:04:07.145Z,95009.81
2023-05-15T15:06:52.617Z,95020.50
2023-05-15T15:09:38.333Z,95015.69
2023-05-15T15:12:23.900Z,95016.50
2023-05-15T15:15:09.656Z,95011.44
2023-05-15T15:17:58.945Z,95005.06
2023-05-15T15:20:44.482Z,95010.97
2023-05-15T15:23:29.538Z,95008.88
2023-05-15T15:26:15.773Z,95001.69
2023-05-15T15:29:01.174Z,95011.06
2023-05-15T15:31:46.424Z,95015.34
2023-05-15T15:34:31.956Z,95022.81
2023-05-15T15:37:17.381Z,95018.53
2023-05-15T15:40:05.834Z,95015.84
2023-05-15T15:42:50.922Z,95016.41
2023-05-15T15:45:36.133Z,95018.28
2023-05-15T15:48:21.685Z,95033.00
2023-05-15T15:51:07.183Z,95021.78
2023-05-15T15:53:52.107Z,95011.09
2023-05-15T15:56:37.776Z,95021.78
2023-05-15T15:59:22.865Z,95025.78
2023-05-15T16:02:08.897Z,95021.25
2023-05-15T16:04:54.611Z,95016.44
2023-05-15T16:07:39.785Z,95017.19
2023-05-15T16:10:25.876Z,95018.28
2023-05-15T16:13:11.104Z,95001.41
2023-05-15T16:15:56.801Z,95005.94
2023-05-15T16:18:42.114Z,95015.00
2023-05-15T16:21:27.715Z,95017.94
2023-05-15T16:24:13.035Z,95018.41
2023-05-15T16:26:58.174Z,95023.75
2023-05-15T16:29:43.300Z,95036.09
2023-05-15T16:32:28.578Z,95044.41
2023-05-15T16:35:14.102Z,95051.13
2023-05-15T16:37:59.416Z,95040.44
2023-05-15T16:40:44.579Z,95035.09
2023-05-15T16:43:29.801Z,95038.31
2023-05-15T16:46:15.185Z,95033.78
2023-05-15T16:49:01.014Z,95027.88
2023-05-15T16:51:46.032Z,95019.59
2023-05-15T16:54:31.517Z,95020.69
2023-05-15T16:57:16.866Z,95035.09
2023-05-15T17:00:02.064Z,95044.69
2023-05-15T17:02:47.542Z,95047.91
2023-05-15T17:05:33.894Z,95047.63
2023-05-15T17:08:19.112Z,95050.03
2023-05-15T17:11:05.504Z,95053.78
2023-05-15T17:13:50.483Z,95055.34
2023-05-15T17:16:36.240Z,95061.81
2023-05-15T17:19:21.733Z,95067.66
2023-05-15T17:22:07.002Z,95073.78
2023-05-15T17:24:52.359Z,95074.34
2023-05-15T17:27:41.259Z,95070.06
2023-05-15T17:30:26.657Z,95071.41
2023-05-15T17:33:12.233Z,95070.88
2023-05-15T17:35:57.596Z,95081.00
2023-05-15T17:38:42.892Z,95089.03
2023-05-15T17:41:28.825Z,95083.97
2023-05-15T17:44:14.219Z,95094.38
2023-05-15T17:47:00.600Z,95089.84
2023-05-15T17:49:46.295Z,95082.63
2023-05-15T17:52:31.650Z,95081.81
2023-05-15T17:55:16.652Z,95083.66
2023-05-15T17:58:02.126Z,95097.25
2023-05-15T18:00:47.751Z,95091.91
2023-05-15T18:03:34.306Z,95101.13
2023-05-15T18:06:19.779Z,95099.53
2023-05-15T18:09:05.226Z,95104.88
2023-05-15T18:11:51.077Z,95096.88
2023-05-15T18:14:37.176Z,95101.66
2023-05-15T18:17:23.723Z,95112.28
2023-05-15T18:20:11.117Z,95112.81
2023-05-15T18:22:56.295Z,95124.31
2023-05-15T18:25:41.925Z,95130.97
2023-05-15T18:28:27.293Z,95126.13
2023-05-15T18:31:12.920Z,95123.19
2023-05-15T18:33:58.451Z,95122.06
2023-05-15T18:36:44.155Z,95123.97
2023-05-15T18:39:30.748Z,95121.25
2023-05-15T18:42:16.692Z,95127.66
2023-05-15T18:45:02.316Z,95139.63
2023-05-15T18:47:47.816Z,95130.47
2023-05-15T18:50:33.426Z,95131.47
2023-05-15T18:53:19.539Z,95131.72
2023-05-15T18:56:04.646Z,95147.44
2023-05-15T18:58:50.468Z,95159.31
2023-05-15T19:01:35.599Z,95167.78
2023-05-15T19:04:22.168Z,95165.16
2023-05-15T19:07:07.536Z,95171.84
2023-05-15T19:09:52.908Z,95164.91
2023-05-15T19:12:38.214Z,95173.94
2023-05-15T19:15:25.334Z,95170.97
2023-05-15T19:18:11.026Z,95172.31
2023-05-15T19:20:56.992Z,95177.34
2023-05-15T19:23:42.417Z,95183.66
2023-05-15T19:26:28.606Z,95179.63
2023-05-15T19:29:15.645Z,95182.44
2023-05-15T19:32:01.198Z,95180.28
2023-05-15T19:34:48.791Z,95189.06
2023-05-15T19:37:34.138Z,95195.97
2023-05-15T19:40:19.557Z,95183.63
2023-05-15T19:43:04.799Z,95190.28
2023-05-15T19:45:50.263Z,95181.16
2023-05-15T19:48:35.676Z,95179.25
2023-05-15T19:51:21.048Z,95176.28
2023-05-15T19:54:06.634Z,95186.88
2023-05-15T19:56:51.700Z,95179.09
2023-05-15T19:59:38.564Z,95182.53
2023-05-15T20:02:24.167Z,95183.03
2023-05-15T20:05:28.626Z,95189.44
2023-05-15T20:08:14.903Z,95191.53
2023-05-15T20:11:01.252Z,95198.97
2023-05-15T20:13:46.555Z,95204.28
2023-05-15T20:16:31.667Z,95206.38
2023-05-15T20:19:17.156Z,95211.72
2023-05-15T20:22:02.525Z,95206.88
2023-05-15T20:24:48.249Z,95212.22
2023-05-15T20:27:34.459Z,95214.88
2023-05-15T20:30:19.524Z,95219.13
2023-05-15T20:33:05.095Z,95211.66
2023-05-15T20:35:51.553Z,95210.84
2023-05-15T20:38:37.462Z,95204.03
2023-05-15T20:41:23.251Z,95205.31
2023-05-15T20:44:09.728Z,95213.06
2023-05-15T20:46:54.793Z,95212.59
2023-05-15T20:49:40.462Z,95205.94
2023-05-15T20:52:25.512Z,95206.75
2023-05-15T20:55:20.125Z,95201.94
2023-05-15T20:58:05.478Z,95204.03
2023-05-15T21:00:51.109Z,95200.25
2023-05-15T21:03:36.651Z,95212.97
2023-05-15T21:06:22.142Z,95210.00
2023-05-15T21:09:07.537Z,95214.53
2023-05-15T21:11:52.775Z,95206.50
2023-05-15T21:14:38.025Z,95218.66
2023-05-15T21:17:23.305Z,95214.41
2023-05-15T21:20:09.500Z,95223.41
2023-05-15T21:22:54.567Z,95227.16
2023-05-15T21:25:40.923Z,95213.28
2023-05-15T21:28:26.177Z,95219.09
2023-05-15T21:31:11.734Z,95210.78
2023-05-15T21:33:56.994Z,95201.41
2023-05-15T21:36:42.581Z,95199.25
2023-05-15T21:39:27.864Z,95202.66
2023-05-15T21:42:13.224Z,95200.25
2023-05-15T21:44:59.298Z,95199.66
2023-05-15T21:47:44.440Z,95200.34
2023-05-15T21:50:29.972Z,95196.25
2023-05-15T21:53:14.872Z,95203.09
2023-05-15T21:56:01.618Z,95204.41
2023-05-15T21:58:46.929Z,95205.94
2023-05-15T22:01:32.188Z,95209.34
2023-05-15T22:04:17.598Z,95207.38
2023-05-15T22:07:02.806Z,95212.94
2023-05-15T22:09:48.090Z,95232.88
2023-05-15T22:12:34.270Z,95235.69
2023-05-15T22:15:19.650Z,95240.91
2023-05-15T22:18:08.320Z,95231.78
2023-05-15T22:20:55.195Z,95236.44
2023-05-15T22:23:40.659Z,95225.16
2023-05-15T22:26:26.744Z,95230.72
2023-05-15T22:29:11.728Z,95235.59
2023-05-15T22:31:57.163Z,95242.66
2023-05-15T22:34:42.354Z,95248.22
2023-05-15T22:37:27.810Z,95239.91
2023-05-15T22:40:13.472Z,95239.03
2023-05-15T22:42:58.556Z,95246.91
2023-05-15T22:45:44.032Z,95256.28
2023-05-15T22:48:29.557Z,95262.88
2023-05-15T22:51:16.236Z,95258.75
2023-05-15T22:54:01.261Z,95259.91
2023-05-15T22:56:46.478Z,95259.03
2023-05-15T22:59:31.935Z,95258.91
2023-05-15T23:02:17.264Z,95256.56
2023-05-15T23:05:02.400Z,95272.97
2023-05-15T23:07:47.980Z,95274.25
2023-05-15T23:10:32.993Z,95273.91
2023-05-15T23:13:18.254Z,95273.22
2023-05-15T23:16:03.731Z,95275.19
2023-05-15T23:18:49.009Z,95284.06
2023-05-15T23:21:34.067Z,95291.69
2023-05-15T23:24:19.426Z,95295.97
2023-05-15T23:27:05.682Z,95294.00
2023-05-15T23:29:51.051Z,95288.59
2023-05-15T23:32:36.524Z,95285.22
2023-05-15T23:35:21.788Z,95284.53
2023-05-15T23:38:07.140Z,95282.91
2023-05-15T23:40:53.040Z,95278.53
2023-05-15T23:43:38.086Z,95287.41
2023-05-15T23:46:23.576Z,95287.59
2023-05-15T23:49:09.336Z,95304.34
2023-05-15T23:51:54.658Z,95308.69
2023-05-15T23:54:40.295Z,95306.03
2023-05-15T23:57:25.636Z,95302.91
